sensor_id;sensor_type;location;lat;lon;timestamp;temperature;humidity
74376;HTU21D;62812;55.188;61.302;2022-09-28T00:01:07;1.55;78.30
74376;HTU21D;62812;55.188;61.302;2022-09-28T00:03:33;1.54;78.50
74376;HTU21D;62812;55.188;61.302;2022-09-28T00:06:03;1.58;78.26
74376;HTU21D;62812;55.188;61.302;2022-09-28T00:08:30;1.60;78.36
74376;HTU21D;62812;55.188;61.302;2022-09-28T00:10:57;1.55;78.53
74376;HTU21D;62812;55.188;61.302;2022-09-28T00:13:23;1.53;78.27
74376;HTU21D;62812;55.188;61.302;2022-09-28T00:15:58;1.55;78.41
74376;HTU21D;62812;55.188;61.302;2022-09-28T00:18:25;1.58;78.23
74376;HTU21D;62812;55.188;61.302;2022-09-28T00:20:59;1.60;78.25
74376;HTU21D;62812;55.188;61.302;2022-09-28T00:23:27;1.57;78.42
74376;HTU21D;62812;55.188;61.302;2022-09-28T00:25:53;1.54;78.60
74376;HTU21D;62812;55.188;61.302;2022-09-28T00:28:20;1.51;78.58
74376;HTU21D;62812;55.188;61.302;2022-09-28T00:30:47;1.53;78.75
74376;HTU21D;62812;55.188;61.302;2022-09-28T00:33:13;1.53;78.28
74376;HTU21D;62812;55.188;61.302;2022-09-28T00:35:40;1.50;78.12
74376;HTU21D;62812;55.188;61.302;2022-09-28T00:38:06;1.47;78.51
74376;HTU21D;62812;55.188;61.302;2022-09-28T00:40:35;1.48;78.49
74376;HTU21D;62812;55.188;61.302;2022-09-28T00:43:16;1.50;78.37
74376;HTU21D;62812;55.188;61.302;2022-09-28T00:45:43;1.52;78.15
74376;HTU21D;62812;55.188;61.302;2022-09-28T00:48:11;1.55;77.63
74376;HTU21D;62812;55.188;61.302;2022-09-28T00:50:38;1.60;76.66
74376;HTU21D;62812;55.188;61.302;2022-09-28T00:53:08;1.55;77.27
74376;HTU21D;62812;55.188;61.302;2022-09-28T00:55:43;1.58;76.89
74376;HTU21D;62812;55.188;61.302;2022-09-28T00:58:13;1.60;76.63
74376;HTU21D;62812;55.188;61.302;2022-09-28T01:00:43;1.70;76.34
74376;HTU21D;62812;55.188;61.302;2022-09-28T01:03:10;1.63;75.60
74376;HTU21D;62812;55.188;61.302;2022-09-28T01:05:38;1.63;75.71
74376;HTU21D;62812;55.188;61.302;2022-09-28T01:08:06;1.60;74.75
74376;HTU21D;62812;55.188;61.302;2022-09-28T01:10:33;1.58;74.95
74376;HTU21D;62812;55.188;61.302;2022-09-28T01:13:01;1.52;74.85
74376;HTU21D;62812;55.188;61.302;2022-09-28T01:15:28;1.62;75.78
74376;HTU21D;62812;55.188;61.302;2022-09-28T01:18:06;1.54;74.31
74376;HTU21D;62812;55.188;61.302;2022-09-28T01:20:50;1.49;74.91
74376;HTU21D;62812;55.188;61.302;2022-09-28T01:23:52;1.49;75.31
74376;HTU21D;62812;55.188;61.302;2022-09-28T01:26:44;1.62;74.62
74376;HTU21D;62812;55.188;61.302;2022-09-28T01:29:17;1.62;74.36
74376;HTU21D;62812;55.188;61.302;2022-09-28T01:31:49;1.71;74.41
74376;HTU21D;62812;55.188;61.302;2022-09-28T01:34:19;1.76;74.12
74376;HTU21D;62812;55.188;61.302;2022-09-28T01:36:51;1.80;73.98
74376;HTU21D;62812;55.188;61.302;2022-09-28T01:39:23;1.82;74.19
74376;HTU21D;62812;55.188;61.302;2022-09-28T01:41:53;1.76;73.91
74376;HTU21D;62812;55.188;61.302;2022-09-28T01:44:23;1.69;74.14
74376;HTU21D;62812;55.188;61.302;2022-09-28T01:46:52;1.60;74.70
74376;HTU21D;62812;55.188;61.302;2022-09-28T01:49:20;1.53;74.54
74376;HTU21D;62812;55.188;61.302;2022-09-28T01:51:52;1.50;75.22
74376;HTU21D;62812;55.188;61.302;2022-09-28T01:54:24;1.41;74.85
74376;HTU21D;62812;55.188;61.302;2022-09-28T01:56:57;1.32;75.37
74376;HTU21D;62812;55.188;61.302;2022-09-28T01:59:27;1.27;75.70
74376;HTU21D;62812;55.188;61.302;2022-09-28T02:01:57;1.29;75.80
74376;HTU21D;62812;55.188;61.302;2022-09-28T02:04:28;1.37;76.09
74376;HTU21D;62812;55.188;61.302;2022-09-28T02:07:00;1.32;76.27
74376;HTU21D;62812;55.188;61.302;2022-09-28T02:09:30;1.27;76.18
74376;HTU21D;62812;55.188;61.302;2022-09-28T02:12:04;1.23;76.17
74376;HTU21D;62812;55.188;61.302;2022-09-28T02:14:33;1.18;75.35
74376;HTU21D;62812;55.188;61.302;2022-09-28T02:17:00;1.17;73.73
74376;HTU21D;62812;55.188;61.302;2022-09-28T02:19:28;1.20;73.85
74376;HTU21D;62812;55.188;61.302;2022-09-28T02:21:59;1.18;72.86
74376;HTU21D;62812;55.188;61.302;2022-09-28T02:24:32;1.14;72.75
74376;HTU21D;62812;55.188;61.302;2022-09-28T02:27:05;1.07;71.44
74376;HTU21D;62812;55.188;61.302;2022-09-28T02:29:34;1.11;73.89
74376;HTU21D;62812;55.188;61.302;2022-09-28T02:32:00;1.21;73.89
74376;HTU21D;62812;55.188;61.302;2022-09-28T02:34:27;1.36;72.13
74376;HTU21D;62812;55.188;61.302;2022-09-28T02:36:53;1.33;70.70
74376;HTU21D;62812;55.188;61.302;2022-09-28T02:39:22;1.26;70.85
74376;HTU21D;62812;55.188;61.302;2022-09-28T02:41:54;1.18;71.24
74376;HTU21D;62812;55.188;61.302;2022-09-28T02:44:39;1.10;71.58
74376;HTU21D;62812;55.188;61.302;2022-09-28T02:47:15;1.07;71.89
74376;HTU21D;62812;55.188;61.302;2022-09-28T02:49:49;1.08;72.68
74376;HTU21D;62812;55.188;61.302;2022-09-28T02:52:30;1.08;72.50
74376;HTU21D;62812;55.188;61.302;2022-09-28T02:55:18;1.07;72.89
74376;HTU21D;62812;55.188;61.302;2022-09-28T02:58:05;1.03;72.20
74376;HTU21D;62812;55.188;61.302;2022-09-28T03:00:41;1.13;73.14
74376;HTU21D;62812;55.188;61.302;2022-09-28T03:03:13;1.20;72.14
74376;HTU21D;62812;55.188;61.302;2022-09-28T03:05:50;1.28;71.98
74376;HTU21D;62812;55.188;61.302;2022-09-28T03:08:22;1.27;72.93
74376;HTU21D;62812;55.188;61.302;2022-09-28T03:10:55;1.25;72.04
74376;HTU21D;62812;55.188;61.302;2022-09-28T03:13:24;1.20;72.38
74376;HTU21D;62812;55.188;61.302;2022-09-28T03:16:08;1.19;72.27
74376;HTU21D;62812;55.188;61.302;2022-09-28T03:18:35;1.14;72.77
74376;HTU21D;62812;55.188;61.302;2022-09-28T03:21:03;1.13;73.42
74376;HTU21D;62812;55.188;61.302;2022-09-28T03:23:29;1.13;73.44
74376;HTU21D;62812;55.188;61.302;2022-09-28T03:25:56;1.16;73.70
74376;HTU21D;62812;55.188;61.302;2022-09-28T03:28:22;1.16;74.62
74376;HTU21D;62812;55.188;61.302;2022-09-28T03:30:49;1.19;74.87
74376;HTU21D;62812;55.188;61.302;2022-09-28T03:33:17;1.25;75.00
74376;HTU21D;62812;55.188;61.302;2022-09-28T03:35:46;1.32;75.40
74376;HTU21D;62812;55.188;61.302;2022-09-28T03:38:13;1.42;74.26
74376;HTU21D;62812;55.188;61.302;2022-09-28T03:40:39;1.43;74.35
74376;HTU21D;62812;55.188;61.302;2022-09-28T03:43:06;1.58;74.01
74376;HTU21D;62812;55.188;61.302;2022-09-28T03:45:32;1.62;72.04
74376;HTU21D;62812;55.188;61.302;2022-09-28T03:47:59;1.71;73.54
74376;HTU21D;62812;55.188;61.302;2022-09-28T03:50:27;1.82;71.62
74376;HTU21D;62812;55.188;61.302;2022-09-28T03:52:53;1.75;68.37
74376;HTU21D;62812;55.188;61.302;2022-09-28T03:55:20;1.64;67.72
74376;HTU21D;62812;55.188;61.302;2022-09-28T03:57:52;1.65;72.19
74376;HTU21D;62812;55.188;61.302;2022-09-28T04:00:19;1.79;68.78
74376;HTU21D;62812;55.188;61.302;2022-09-28T04:02:46;1.92;68.63
74376;HTU21D;62812;55.188;61.302;2022-09-28T04:05:12;1.86;66.90
74376;HTU21D;62812;55.188;61.302;2022-09-28T04:07:40;1.83;68.33
74376;HTU21D;62812;55.188;61.302;2022-09-28T04:10:08;1.80;67.20
74376;HTU21D;62812;55.188;61.302;2022-09-28T04:12:34;1.84;67.72
74376;HTU21D;62812;55.188;61.302;2022-09-28T04:15:01;1.93;70.11
74376;HTU21D;62812;55.188;61.302;2022-09-28T04:17:27;1.94;68.45
74376;HTU21D;62812;55.188;61.302;2022-09-28T04:19:54;1.95;68.23
74376;HTU21D;62812;55.188;61.302;2022-09-28T04:22:20;1.92;68.31
74376;HTU21D;62812;55.188;61.302;2022-09-28T04:24:49;1.90;69.04
74376;HTU21D;62812;55.188;61.302;2022-09-28T04:27:16;1.90;69.09
74376;HTU21D;62812;55.188;61.302;2022-09-28T04:30:01;1.94;68.07
74376;HTU21D;62812;55.188;61.302;2022-09-28T04:32:27;1.98;68.46
74376;HTU21D;62812;55.188;61.302;2022-09-28T04:34:54;2.15;70.81
74376;HTU21D;62812;55.188;61.302;2022-09-28T04:37:21;2.07;67.27
74376;HTU21D;62812;55.188;61.302;2022-09-28T04:39:48;2.03;68.26
74376;HTU21D;62812;55.188;61.302;2022-09-28T04:42:15;2.01;68.19
74376;HTU21D;62812;55.188;61.302;2022-09-28T04:44:41;2.13;71.41
74376;HTU21D;62812;55.188;61.302;2022-09-28T04:47:08;2.36;69.22
74376;HTU21D;62812;55.188;61.302;2022-09-28T04:49:35;2.38;67.72
74376;HTU21D;62812;55.188;61.302;2022-09-28T04:52:03;2.40;66.69
74376;HTU21D;62812;55.188;61.302;2022-09-28T04:54:30;2.45;68.29
74376;HTU21D;62812;55.188;61.302;2022-09-28T04:56:58;2.42;67.38
74376;HTU21D;62812;55.188;61.302;2022-09-28T04:59:24;2.57;69.41
74376;HTU21D;62812;55.188;61.302;2022-09-28T05:01:51;2.46;68.87
74376;HTU21D;62812;55.188;61.302;2022-09-28T05:04:19;2.40;67.26
74376;HTU21D;62812;55.188;61.302;2022-09-28T05:06:45;2.38;67.23
74376;HTU21D;62812;55.188;61.302;2022-09-28T05:09:12;2.28;69.18
74376;HTU21D;62812;55.188;61.302;2022-09-28T05:11:38;2.30;68.20
74376;HTU21D;62812;55.188;61.302;2022-09-28T05:14:06;2.24;66.78
74376;HTU21D;62812;55.188;61.302;2022-09-28T05:16:33;2.20;67.68
74376;HTU21D;62812;55.188;61.302;2022-09-28T05:19:00;2.23;66.64
74376;HTU21D;62812;55.188;61.302;2022-09-28T05:21:26;2.20;66.95
74376;HTU21D;62812;55.188;61.302;2022-09-28T05:23:54;2.27;68.25
74376;HTU21D;62812;55.188;61.302;2022-09-28T05:26:21;2.34;67.33
74376;HTU21D;62812;55.188;61.302;2022-09-28T05:28:48;2.41;66.65
74376;HTU21D;62812;55.188;61.302;2022-09-28T05:31:16;2.68;69.83
74376;HTU21D;62812;55.188;61.302;2022-09-28T05:33:43;2.72;65.27
74376;HTU21D;62812;55.188;61.302;2022-09-28T05:36:09;2.56;67.14
74376;HTU21D;62812;55.188;61.302;2022-09-28T05:38:36;2.50;67.80
74376;HTU21D;62812;55.188;61.302;2022-09-28T05:41:03;2.34;66.19
74376;HTU21D;62812;55.188;61.302;2022-09-28T05:43:31;2.15;65.00
74376;HTU21D;62812;55.188;61.302;2022-09-28T05:45:57;1.95;64.92
74376;HTU21D;62812;55.188;61.302;2022-09-28T05:48:25;2.09;69.29
74376;HTU21D;62812;55.188;61.302;2022-09-28T05:50:53;2.10;66.87
74376;HTU21D;62812;55.188;61.302;2022-09-28T05:53:19;2.02;64.90
74376;HTU21D;62812;55.188;61.302;2022-09-28T05:55:46;1.94;64.80
74376;HTU21D;62812;55.188;61.302;2022-09-28T05:58:13;1.90;66.05
74376;HTU21D;62812;55.188;61.302;2022-09-28T06:00:39;1.90;66.56
74376;HTU21D;62812;55.188;61.302;2022-09-28T06:03:07;1.99;67.49
74376;HTU21D;62812;55.188;61.302;2022-09-28T06:05:37;2.06;67.46
74376;HTU21D;62812;55.188;61.302;2022-09-28T06:08:05;2.27;68.75
74376;HTU21D;62812;55.188;61.302;2022-09-28T06:10:32;2.44;66.58
74376;HTU21D;62812;55.188;61.302;2022-09-28T06:12:59;2.70;69.58
74376;HTU21D;62812;55.188;61.302;2022-09-28T06:15:27;2.74;64.53
74376;HTU21D;62812;55.188;61.302;2022-09-28T06:17:57;2.71;63.66
74376;HTU21D;62812;55.188;61.302;2022-09-28T06:20:24;2.75;63.78
74376;HTU21D;62812;55.188;61.302;2022-09-28T06:22:53;2.84;66.27
74376;HTU21D;62812;55.188;61.302;2022-09-28T06:25:20;3.29;66.10
74376;HTU21D;62812;55.188;61.302;2022-09-28T06:27:57;3.31;62.70
74376;HTU21D;62812;55.188;61.302;2022-09-28T06:30:25;3.29;62.81
74376;HTU21D;62812;55.188;61.302;2022-09-28T06:32:53;3.39;64.22
74376;HTU21D;62812;55.188;61.302;2022-09-28T06:35:20;3.33;58.19
74376;HTU21D;62812;55.188;61.302;2022-09-28T06:37:47;3.39;61.26
74376;HTU21D;62812;55.188;61.302;2022-09-28T06:40:15;3.60;66.11
74376;HTU21D;62812;55.188;61.302;2022-09-28T06:42:42;3.84;64.85
74376;HTU21D;62812;55.188;61.302;2022-09-28T06:45:09;3.80;57.28
74376;HTU21D;62812;55.188;61.302;2022-09-28T06:47:36;3.75;58.96
74376;HTU21D;62812;55.188;61.302;2022-09-28T06:50:03;3.72;62.18
74376;HTU21D;62812;55.188;61.302;2022-09-28T06:52:30;3.71;57.71
74376;HTU21D;62812;55.188;61.302;2022-09-28T06:54:57;3.92;62.79
74376;HTU21D;62812;55.188;61.302;2022-09-28T06:57:25;4.13;62.65
74376;HTU21D;62812;55.188;61.302;2022-09-28T06:59:52;4.10;56.19
74376;HTU21D;62812;55.188;61.302;2022-09-28T07:02:18;4.03;55.63
74376;HTU21D;62812;55.188;61.302;2022-09-28T07:04:45;4.03;58.08
74376;HTU21D;62812;55.188;61.302;2022-09-28T07:07:11;3.99;57.48
74376;HTU21D;62812;55.188;61.302;2022-09-28T07:09:37;3.91;55.36
74376;HTU21D;62812;55.188;61.302;2022-09-28T07:12:04;3.69;54.23
74376;HTU21D;62812;55.188;61.302;2022-09-28T07:14:33;3.57;54.01
74376;HTU21D;62812;55.188;61.302;2022-09-28T07:17:00;3.65;59.56
74376;HTU21D;62812;55.188;61.302;2022-09-28T07:19:27;3.58;54.59
74376;HTU21D;62812;55.188;61.302;2022-09-28T07:21:54;3.62;58.13
74376;HTU21D;62812;55.188;61.302;2022-09-28T07:24:22;3.70;59.03
74376;HTU21D;62812;55.188;61.302;2022-09-28T07:26:48;3.74;52.63
74376;HTU21D;62812;55.188;61.302;2022-09-28T07:29:16;3.71;54.90
74376;HTU21D;62812;55.188;61.302;2022-09-28T07:31:44;4.08;55.00
74376;HTU21D;62812;55.188;61.302;2022-09-28T07:34:10;4.06;51.74
74376;HTU21D;62812;55.188;61.302;2022-09-28T07:36:39;3.93;51.81
74376;HTU21D;62812;55.188;61.302;2022-09-28T07:39:05;3.85;51.63
74376;HTU21D;62812;55.188;61.302;2022-09-28T07:41:32;3.84;56.69
74376;HTU21D;62812;55.188;61.302;2022-09-28T07:43:58;3.78;52.25
74376;HTU21D;62812;55.188;61.302;2022-09-28T07:46:31;3.69;53.42
74376;HTU21D;62812;55.188;61.302;2022-09-28T07:48:59;3.82;56.87
74376;HTU21D;62812;55.188;61.302;2022-09-28T07:51:26;3.76;55.51
74376;HTU21D;62812;55.188;61.302;2022-09-28T07:53:52;3.95;56.77
74376;HTU21D;62812;55.188;61.302;2022-09-28T07:56:22;3.82;52.59
74376;HTU21D;62812;55.188;61.302;2022-09-28T07:58:48;3.82;59.25
74376;HTU21D;62812;55.188;61.302;2022-09-28T08:01:15;3.91;51.76
74376;HTU21D;62812;55.188;61.302;2022-09-28T08:03:42;4.01;59.75
74376;HTU21D;62812;55.188;61.302;2022-09-28T08:06:15;3.98;52.84
74376;HTU21D;62812;55.188;61.302;2022-09-28T08:08:43;3.77;52.42
74376;HTU21D;62812;55.188;61.302;2022-09-28T08:11:11;3.65;52.89
74376;HTU21D;62812;55.188;61.302;2022-09-28T08:13:37;3.63;54.21
74376;HTU21D;62812;55.188;61.302;2022-09-28T08:16:04;3.53;52.46
74376;HTU21D;62812;55.188;61.302;2022-09-28T08:18:33;3.44;58.07
74376;HTU21D;62812;55.188;61.302;2022-09-28T08:21:01;3.48;52.92
74376;HTU21D;62812;55.188;61.302;2022-09-28T08:23:47;3.48;58.81
74376;HTU21D;62812;55.188;61.302;2022-09-28T08:26:14;3.69;60.35
74376;HTU21D;62812;55.188;61.302;2022-09-28T08:28:42;3.90;56.29
74376;HTU21D;62812;55.188;61.302;2022-09-28T08:31:08;4.22;54.50
74376;HTU21D;62812;55.188;61.302;2022-09-28T08:33:35;4.21;52.40
74376;HTU21D;62812;55.188;61.302;2022-09-28T08:36:02;4.34;51.30
74376;HTU21D;62812;55.188;61.302;2022-09-28T08:38:30;4.29;52.21
74376;HTU21D;62812;55.188;61.302;2022-09-28T08:41:02;4.15;52.69
74376;HTU21D;62812;55.188;61.302;2022-09-28T08:43:51;4.09;51.67
74376;HTU21D;62812;55.188;61.302;2022-09-28T08:46:23;4.22;53.98
74376;HTU21D;62812;55.188;61.302;2022-09-28T08:48:53;4.37;55.26
74376;HTU21D;62812;55.188;61.302;2022-09-28T08:51:23;4.38;51.58
74376;HTU21D;62812;55.188;61.302;2022-09-28T08:53:52;4.21;53.31
74376;HTU21D;62812;55.188;61.302;2022-09-28T08:56:28;4.04;52.56
74376;HTU21D;62812;55.188;61.302;2022-09-28T08:58:58;4.19;55.30
74376;HTU21D;62812;55.188;61.302;2022-09-28T09:01:27;4.08;56.03
74376;HTU21D;62812;55.188;61.302;2022-09-28T09:03:56;4.26;52.38
74376;HTU21D;62812;55.188;61.302;2022-09-28T09:06:28;4.26;52.33
74376;HTU21D;62812;55.188;61.302;2022-09-28T09:09:05;4.31;57.24
74376;HTU21D;62812;55.188;61.302;2022-09-28T09:11:45;4.22;50.21
74376;HTU21D;62812;55.188;61.302;2022-09-28T09:17:22;4.34;51.03
74376;HTU21D;62812;55.188;61.302;2022-09-28T09:19:54;4.19;54.54
74376;HTU21D;62812;55.188;61.302;2022-09-28T09:22:35;4.15;51.93
74376;HTU21D;62812;55.188;61.302;2022-09-28T09:25:17;3.91;51.01
74376;HTU21D;62812;55.188;61.302;2022-09-28T09:28:01;3.91;52.60
74376;HTU21D;62812;55.188;61.302;2022-09-28T09:30:40;4.03;55.65
74376;HTU21D;62812;55.188;61.302;2022-09-28T09:33:33;4.10;51.04
74376;HTU21D;62812;55.188;61.302;2022-09-28T09:36:17;4.08;50.04
74376;HTU21D;62812;55.188;61.302;2022-09-28T09:38:57;4.02;49.90
74376;HTU21D;62812;55.188;61.302;2022-09-28T09:41:37;4.06;49.40
74376;HTU21D;62812;55.188;61.302;2022-09-28T09:47:19;4.54;58.73
74376;HTU21D;62812;55.188;61.302;2022-09-28T09:49:50;4.64;55.21
74376;HTU21D;62812;55.188;61.302;2022-09-28T09:52:24;4.65;51.56
74376;HTU21D;62812;55.188;61.302;2022-09-28T09:54:54;4.28;50.33
74376;HTU21D;62812;55.188;61.302;2022-09-28T09:57:26;3.97;50.14
74376;HTU21D;62812;55.188;61.302;2022-09-28T09:59:57;3.75;49.19
74376;HTU21D;62812;55.188;61.302;2022-09-28T10:02:27;3.58;48.62
74376;HTU21D;62812;55.188;61.302;2022-09-28T10:04:56;3.58;57.53
74376;HTU21D;62812;55.188;61.302;2022-09-28T10:07:29;3.73;57.91
74376;HTU21D;62812;55.188;61.302;2022-09-28T10:09:57;3.76;57.58
74376;HTU21D;62812;55.188;61.302;2022-09-28T10:12:25;3.98;57.98
74376;HTU21D;62812;55.188;61.302;2022-09-28T10:14:52;3.86;52.73
74376;HTU21D;62812;55.188;61.302;2022-09-28T10:17:21;3.94;58.84
74376;HTU21D;62812;55.188;61.302;2022-09-28T10:19:53;4.10;51.75
74376;HTU21D;62812;55.188;61.302;2022-09-28T10:22:24;4.32;52.20
74376;HTU21D;62812;55.188;61.302;2022-09-28T10:24:54;4.17;49.99
74376;HTU21D;62812;55.188;61.302;2022-09-28T10:27:25;3.94;52.76
74376;HTU21D;62812;55.188;61.302;2022-09-28T10:29:55;3.82;51.33
74376;HTU21D;62812;55.188;61.302;2022-09-28T10:32:25;3.75;53.02
74376;HTU21D;62812;55.188;61.302;2022-09-28T10:35:10;3.68;51.95
74376;HTU21D;62812;55.188;61.302;2022-09-28T10:37:46;3.54;50.54
74376;HTU21D;62812;55.188;61.302;2022-09-28T10:40:26;3.46;51.72
74376;HTU21D;62812;55.188;61.302;2022-09-28T10:43:01;3.44;52.82
74376;HTU21D;62812;55.188;61.302;2022-09-28T10:45:33;3.52;57.92
74376;HTU21D;62812;55.188;61.302;2022-09-28T10:48:04;3.77;59.75
74376;HTU21D;62812;55.188;61.302;2022-09-28T10:50:31;4.03;50.00
74376;HTU21D;62812;55.188;61.302;2022-09-28T10:53:10;4.26;55.91
74376;HTU21D;62812;55.188;61.302;2022-09-28T10:55:37;4.46;56.16
74376;HTU21D;62812;55.188;61.302;2022-09-28T10:58:21;4.35;48.47
74376;HTU21D;62812;55.188;61.302;2022-09-28T11:00:49;4.34;49.50
74376;HTU21D;62812;55.188;61.302;2022-09-28T11:03:20;4.26;54.46
74376;HTU21D;62812;55.188;61.302;2022-09-28T11:05:56;4.12;48.65
74376;HTU21D;62812;55.188;61.302;2022-09-28T11:08:26;3.91;53.44
74376;HTU21D;62812;55.188;61.302;2022-09-28T11:11:05;3.73;50.38
74376;HTU21D;62812;55.188;61.302;2022-09-28T11:13:41;3.79;51.45
74376;HTU21D;62812;55.188;61.302;2022-09-28T11:16:21;3.82;50.27
74376;HTU21D;62812;55.188;61.302;2022-09-28T11:18:49;3.80;49.37
74376;HTU21D;62812;55.188;61.302;2022-09-28T11:21:17;3.67;51.01
74376;HTU21D;62812;55.188;61.302;2022-09-28T11:24:00;3.70;51.30
74376;HTU21D;62812;55.188;61.302;2022-09-28T11:26:35;3.63;51.66
74376;HTU21D;62812;55.188;61.302;2022-09-28T11:29:03;3.83;52.18
74376;HTU21D;62812;55.188;61.302;2022-09-28T11:31:30;3.87;49.95
74376;HTU21D;62812;55.188;61.302;2022-09-28T11:34:04;3.78;49.44
74376;HTU21D;62812;55.188;61.302;2022-09-28T11:36:44;3.58;48.12
74376;HTU21D;62812;55.188;61.302;2022-09-28T11:39:22;3.45;50.70
74376;HTU21D;62812;55.188;61.302;2022-09-28T11:42:03;3.29;48.66
74376;HTU21D;62812;55.188;61.302;2022-09-28T11:44:38;3.16;48.01
74376;HTU21D;62812;55.188;61.302;2022-09-28T11:50:02;3.12;50.34
74376;HTU21D;62812;55.188;61.302;2022-09-28T11:52:36;3.14;48.12
74376;HTU21D;62812;55.188;61.302;2022-09-28T11:55:10;3.09;47.70
74376;HTU21D;62812;55.188;61.302;2022-09-28T11:57:41;3.21;49.47
74376;HTU21D;62812;55.188;61.302;2022-09-28T12:00:11;3.33;52.94
74376;HTU21D;62812;55.188;61.302;2022-09-28T12:02:44;3.48;51.53
74376;HTU21D;62812;55.188;61.302;2022-09-28T12:05:18;3.67;55.75
74376;HTU21D;62812;55.188;61.302;2022-09-28T12:07:48;3.80;54.31
74376;HTU21D;62812;55.188;61.302;2022-09-28T12:10:17;3.71;52.33
74376;HTU21D;62812;55.188;61.302;2022-09-28T12:12:48;3.44;48.27
74376;HTU21D;62812;55.188;61.302;2022-09-28T12:15:18;3.31;48.95
74376;HTU21D;62812;55.188;61.302;2022-09-28T12:17:47;3.49;51.27
74376;HTU21D;62812;55.188;61.302;2022-09-28T12:20:20;3.53;53.47
74376;HTU21D;62812;55.188;61.302;2022-09-28T12:23:01;3.54;54.55
74376;HTU21D;62812;55.188;61.302;2022-09-28T12:25:36;3.54;49.07
74376;HTU21D;62812;55.188;61.302;2022-09-28T12:28:06;3.36;54.15
74376;HTU21D;62812;55.188;61.302;2022-09-28T12:30:35;3.50;56.48
74376;HTU21D;62812;55.188;61.302;2022-09-28T12:33:07;3.47;49.44
74376;HTU21D;62812;55.188;61.302;2022-09-28T12:35:52;3.25;53.52
74376;HTU21D;62812;55.188;61.302;2022-09-28T12:38:32;3.27;55.20
74376;HTU21D;62812;55.188;61.302;2022-09-28T12:41:10;3.14;56.62
74376;HTU21D;62812;55.188;61.302;2022-09-28T12:43:55;3.24;56.44
74376;HTU21D;62812;55.188;61.302;2022-09-28T12:46:32;3.29;55.68
74376;HTU21D;62812;55.188;61.302;2022-09-28T12:49:17;3.23;55.56
74376;HTU21D;62812;55.188;61.302;2022-09-28T12:51:50;2.99;50.34
74376;HTU21D;62812;55.188;61.302;2022-09-28T12:54:37;2.98;51.87
74376;HTU21D;62812;55.188;61.302;2022-09-28T12:57:29;2.86;52.03
74376;HTU21D;62812;55.188;61.302;2022-09-28T13:00:04;2.87;56.00
74376;HTU21D;62812;55.188;61.302;2022-09-28T13:02:53;2.88;51.01
74376;HTU21D;62812;55.188;61.302;2022-09-28T13:05:57;2.89;55.01
74376;HTU21D;62812;55.188;61.302;2022-09-28T13:08:33;2.85;51.38
74376;HTU21D;62812;55.188;61.302;2022-09-28T13:11:07;2.86;57.06
74376;HTU21D;62812;55.188;61.302;2022-09-28T13:13:49;2.85;51.41
74376;HTU21D;62812;55.188;61.302;2022-09-28T13:16:24;2.86;51.54
74376;HTU21D;62812;55.188;61.302;2022-09-28T13:18:59;2.88;54.84
74376;HTU21D;62812;55.188;61.302;2022-09-28T13:21:33;2.73;51.61
74376;HTU21D;62812;55.188;61.302;2022-09-28T13:24:08;2.76;54.98
74376;HTU21D;62812;55.188;61.302;2022-09-28T13:26:42;2.67;52.85
74376;HTU21D;62812;55.188;61.302;2022-09-28T13:29:12;2.50;52.22
74376;HTU21D;62812;55.188;61.302;2022-09-28T13:31:44;2.40;51.19
74376;HTU21D;62812;55.188;61.302;2022-09-28T13:34:15;2.34;51.71
74376;HTU21D;62812;55.188;61.302;2022-09-28T13:39:46;2.01;54.13
74376;HTU21D;62812;55.188;61.302;2022-09-28T13:42:38;1.98;58.64
74376;HTU21D;62812;55.188;61.302;2022-09-28T13:45:21;1.93;53.77
74376;HTU21D;62812;55.188;61.302;2022-09-28T13:48:02;1.87;54.59
74376;HTU21D;62812;55.188;61.302;2022-09-28T13:50:41;1.80;53.67
74376;HTU21D;62812;55.188;61.302;2022-09-28T13:53:16;1.77;58.29
74376;HTU21D;62812;55.188;61.302;2022-09-28T13:55:55;1.83;55.56
74376;HTU21D;62812;55.188;61.302;2022-09-28T13:58:24;1.90;55.16
74376;HTU21D;62812;55.188;61.302;2022-09-28T14:00:56;1.84;58.25
74376;HTU21D;62812;55.188;61.302;2022-09-28T14:03:27;1.92;59.61
74376;HTU21D;62812;55.188;61.302;2022-09-28T14:06:21;2.06;58.30
74376;HTU21D;62812;55.188;61.302;2022-09-28T14:09:06;1.96;56.36
74376;HTU21D;62812;55.188;61.302;2022-09-28T14:11:50;2.02;56.55
74376;HTU21D;62812;55.188;61.302;2022-09-28T14:20:23;1.78;56.64
74376;HTU21D;62812;55.188;61.302;2022-09-28T14:25:42;1.65;55.32
74376;HTU21D;62812;55.188;61.302;2022-09-28T14:28:32;1.53;56.84
74376;HTU21D;62812;55.188;61.302;2022-09-28T14:31:06;1.46;55.89
74376;HTU21D;62812;55.188;61.302;2022-09-28T14:33:33;1.42;56.96
74376;HTU21D;62812;55.188;61.302;2022-09-28T14:36:03;1.33;57.16
74376;HTU21D;62812;55.188;61.302;2022-09-28T14:38:32;1.39;60.76
74376;HTU21D;62812;55.188;61.302;2022-09-28T14:41:28;1.47;59.80
74376;HTU21D;62812;55.188;61.302;2022-09-28T14:44:03;1.37;56.07
74376;HTU21D;62812;55.188;61.302;2022-09-28T14:46:35;1.31;57.13
74376;HTU21D;62812;55.188;61.302;2022-09-28T14:49:04;1.21;57.42
74376;HTU21D;62812;55.188;61.302;2022-09-28T14:52:01;1.12;57.93
74376;HTU21D;62812;55.188;61.302;2022-09-28T14:54:37;1.10;57.23
74376;HTU21D;62812;55.188;61.302;2022-09-28T14:57:09;1.04;58.25
74376;HTU21D;62812;55.188;61.302;2022-09-28T14:59:42;0.99;57.45
74376;HTU21D;62812;55.188;61.302;2022-09-28T15:02:17;0.99;58.25
74376;HTU21D;62812;55.188;61.302;2022-09-28T15:04:47;0.93;59.16
74376;HTU21D;62812;55.188;61.302;2022-09-28T15:07:19;0.89;59.07
74376;HTU21D;62812;55.188;61.302;2022-09-28T15:09:51;0.86;60.30
74376;HTU21D;62812;55.188;61.302;2022-09-28T15:12:19;0.82;60.19
74376;HTU21D;62812;55.188;61.302;2022-09-28T15:14:50;0.79;60.62
74376;HTU21D;62812;55.188;61.302;2022-09-28T15:17:21;0.75;61.30
74376;HTU21D;62812;55.188;61.302;2022-09-28T15:19:57;0.72;60.67
74376;HTU21D;62812;55.188;61.302;2022-09-28T15:22:27;0.72;61.73
74376;HTU21D;62812;55.188;61.302;2022-09-28T15:24:56;0.72;61.35
74376;HTU21D;62812;55.188;61.302;2022-09-28T15:27:25;0.69;61.88
74376;HTU21D;62812;55.188;61.302;2022-09-28T15:30:19;0.73;60.99
74376;HTU21D;62812;55.188;61.302;2022-09-28T15:32:48;0.72;62.64
74376;HTU21D;62812;55.188;61.302;2022-09-28T15:35:19;0.71;60.80
74376;HTU21D;62812;55.188;61.302;2022-09-28T15:37:48;0.64;61.34
74376;HTU21D;62812;55.188;61.302;2022-09-28T15:40:21;0.60;61.21
74376;HTU21D;62812;55.188;61.302;2022-09-28T15:42:53;0.51;61.63
74376;HTU21D;62812;55.188;61.302;2022-09-28T15:45:25;0.46;61.80
74376;HTU21D;62812;55.188;61.302;2022-09-28T15:47:55;0.40;62.06
74376;HTU21D;62812;55.188;61.302;2022-09-28T15:50:25;0.38;62.45
74376;HTU21D;62812;55.188;61.302;2022-09-28T15:52:55;0.36;62.85
74376;HTU21D;62812;55.188;61.302;2022-09-28T15:55:25;0.33;63.05
74376;HTU21D;62812;55.188;61.302;2022-09-28T15:58:05;0.31;63.11
74376;HTU21D;62812;55.188;61.302;2022-09-28T16:00:33;0.27;63.79
74376;HTU21D;62812;55.188;61.302;2022-09-28T16:03:02;0.24;63.73